createdAt,value
2023-01-02T00:00:03.287Z,97876.31
2023-01-02T00:02:40.828Z,97876.31
2023-01-02T00:05:10.946Z,97870.81
2023-01-02T00:07:40.246Z,97857.06
2023-01-02T00:10:09.088Z,97866.13
2023-01-02T00:12:37.566Z,97854.31
2023-01-02T00:15:07.016Z,97837.81
2023-01-02T00:17:35.503Z,97848.81
2023-01-02T00:20:04.359Z,97832.31
2023-01-02T00:22:34.200Z,97824.06
2023-01-02T00:25:02.649Z,97825.19
2023-01-02T00:27:31.180Z,97826.00
2023-01-02T00:29:59.682Z,97819.69
2023-01-02T00:32:28.127Z,97821.31
2023-01-02T00:35:15.255Z,97826.81
2023-01-02T00:37:45.605Z,97814.47
2023-01-02T00:40:14.305Z,97819.69
2023-01-02T00:42:43.452Z,97814.19
2023-01-02T00:45:12.414Z,97805.94
2023-01-02T00:47:41.259Z,97807.88
2023-01-02T00:50:09.950Z,97798.78
2023-01-02T00:52:38.408Z,97796.88
2023-01-02T00:55:09.009Z,97797.69
2023-01-02T00:57:38.042Z,97790.53
2023-01-02T01:00:07.680Z,97796.03
2023-01-02T01:02:36.925Z,97801.53
2023-01-02T01:05:06.241Z,97799.59
2023-01-02T01:07:34.749Z,97795.22
2023-01-02T01:10:03.222Z,97795.22
2023-01-02T01:12:33.281Z,97797.69
2023-01-02T01:15:01.771Z,97790.53
2023-01-02T01:17:32.631Z,97799.59
2023-01-02T01:20:01.064Z,97808.69
2023-01-02T01:22:29.514Z,97805.09
2023-01-02T01:24:58.013Z,97807.03
2023-01-02T01:27:26.500Z,97801.53
2023-01-02T01:29:56.231Z,97801.03
2023-01-02T01:32:24.738Z,97795.22
2023-01-02T01:34:53.201Z,97801.53
2023-01-02T01:37:21.751Z,97796.03
2023-01-02T01:39:55.397Z,97796.03
2023-01-02T01:42:24.936Z,97806.53
2023-01-02T01:44:55.473Z,97805.41
2023-01-02T01:47:32.585Z,97807.03
2023-01-02T01:50:06.342Z,97808.97
2023-01-02T01:52:37.963Z,97805.41
2023-01-02T01:55:12.414Z,97800.72
2023-01-02T01:57:44.576Z,97803.19
2023-01-02T02:00:14.089Z,97803.19
2023-01-02T02:02:48.525Z,97801.53
2023-01-02T02:05:20.553Z,97797.69
2023-01-02T02:07:59.946Z,97804.00
2023-01-02T02:10:29.457Z,97800.44
2023-01-02T02:12:57.974Z,97802.06
2023-01-02T02:15:31.508Z,97803.19
2023-01-02T02:18:15.203Z,97803.19
2023-01-02T02:20:53.435Z,97799.31
2023-01-02T02:24:01.277Z,97800.13
2023-01-02T02:26:57.919Z,97805.63
2023-01-02T02:30:04.503Z,97800.13
2023-01-02T02:32:46.181Z,97794.63
2023-01-02T02:35:23.946Z,97791.88
2023-01-02T02:37:59.393Z,97789.94
2023-01-02T02:40:38.198Z,97788.31
2023-01-02T02:43:15.834Z,97782.81
2023-01-02T02:45:55.134Z,97789.13
2023-01-02T02:48:29.488Z,97776.50
2023-01-02T02:51:02.772Z,97787.19
2023-01-02T02:53:36.931Z,97780.06
2023-01-02T02:56:06.858Z,97784.44
2023-01-02T02:58:37.202Z,97784.44
2023-01-02T03:01:08.478Z,97761.63
2023-01-02T03:03:38.368Z,97766.31
2023-01-02T03:06:23.109Z,97771.00
2023-01-02T03:09:05.012Z,97771.00
2023-01-02T03:11:46.833Z,97771.81
2023-01-02T03:14:23.093Z,97759.19
2023-01-02T03:16:58.611Z,97761.09
2023-01-02T03:19:36.439Z,97764.66
2023-01-02T03:22:09.325Z,97760.28
2023-01-02T03:24:39.775Z,97763.03
2023-01-02T03:27:11.890Z,97758.34
2023-01-02T03:29:44.530Z,97757.53
2023-01-02T03:32:18.503Z,97763.03
2023-01-02T03:34:49.367Z,97763.03
2023-01-02T03:37:23.694Z,97763.03
2023-01-02T03:39:55.271Z,97763.03
2023-01-02T03:42:28.328Z,97763.03
2023-01-02T03:45:03.826Z,97768.84
2023-01-02T03:47:39.527Z,97765.78
2023-01-02T03:50:15.134Z,97758.66
2023-01-02T03:52:43.674Z,97764.97
2023-01-02T03:55:12.701Z,97758.66
2023-01-02T03:57:57.253Z,97752.66
2023-01-02T04:00:32.205Z,97762.22
2023-01-02T04:03:06.534Z,97764.97
2023-01-02T04:05:42.151Z,97775.16
2023-01-02T04:08:18.242Z,97772.41
2023-01-02T04:10:56.276Z,97772.41
2023-01-02T04:13:29.444Z,97772.41
2023-01-02T04:15:59.332Z,97783.41
2023-01-02T04:18:31.522Z,97772.41
2023-01-02T04:21:07.430Z,97777.09
2023-01-02T04:23:39.937Z,97772.41
2023-01-02T04:26:12.901Z,97773.53
2023-01-02T04:28:41.516Z,97770.78
2023-01-02T04:31:14.473Z,97766.41
2023-01-02T04:33:46.053Z,97767.22
2023-01-02T04:36:17.294Z,97762.53
2023-01-02T04:38:46.981Z,97764.66
2023-01-02T04:41:20.664Z,97763.25
2023-01-02T04:43:49.061Z,97758.47
2023-01-02T04:46:17.552Z,97754.50
2023-01-02T04:48:46.086Z,97755.53
2023-01-02T04:51:15.987Z,97741.69
2023-01-02T04:53:44.427Z,97746.59
2023-01-02T04:56:12.871Z,97745.97
2023-01-02T04:58:42.939Z,97745.38
2023-01-02T05:01:12.278Z,97750.06
2023-01-02T05:03:41.144Z,97752.50
2023-01-02T05:06:10.168Z,97744.25
2023-01-02T05:08:40.150Z,97740.69
2023-01-02T05:11:10.451Z,97742.63
2023-01-02T05:13:39.127Z,97750.88
2023-01-02T05:16:09.100Z,97753.09
2023-01-02T05:18:37.921Z,97748.22
2023-01-02T05:21:28.628Z,97764.22
2023-01-02T05:23:59.383Z,97759.84
2023-01-02T05:26:28.328Z,97755.75
2023-01-02T05:28:56.797Z,97754.94
2023-01-02T05:31:25.369Z,97756.06
2023-01-02T05:33:54.473Z,97755.53
2023-01-02T05:36:24.458Z,97757.75
2023-01-02T05:38:53.620Z,97760.50
2023-01-02T05:41:24.248Z,97761.63
2023-01-02T05:43:53.172Z,97763.88
2023-01-02T05:46:22.320Z,97762.25
2023-01-02T05:48:50.848Z,97760.63
2023-01-02T05:51:20.556Z,97758.97
2023-01-02T05:53:49.103Z,97757.84
2023-01-02T05:56:18.982Z,97766.13
2023-01-02T05:58:50.761Z,97768.03
2023-01-02T06:01:21.094Z,97760.09
2023-01-02T06:03:50.905Z,97761.22
2023-01-02T06:06:21.175Z,97765.09
2023-01-02T06:08:49.732Z,97765.09
2023-01-02T06:11:18.331Z,97769.78
2023-01-02T06:13:48.387Z,97776.09
2023-01-02T06:16:16.915Z,97774.47
2023-01-02T06:18:45.401Z,97784.66
2023-01-02T06:21:15.537Z,97781.09
2023-01-02T06:23:44.232Z,97773.94
2023-01-02T06:26:14.544Z,97773.94
2023-01-02T06:28:43.042Z,97782.19
2023-01-02T06:31:14.988Z,97771.19
2023-01-02T06:33:44.031Z,97773.94
2023-01-02T06:36:14.654Z,97780.56
2023-01-02T06:38:43.552Z,97779.75
2023-01-02T06:41:13.170Z,97784.44
2023-01-02T06:43:44.528Z,97778.94
2023-01-02T06:46:16.050Z,97783.63
2023-01-02T06:48:44.913Z,97785.56
2023-01-02T06:51:15.585Z,97793.81
2023-01-02T06:53:45.160Z,97786.69
2023-01-02T06:56:14.762Z,97798.50
2023-01-02T06:58:43.215Z,97797.69
2023-01-02T07:01:15.169Z,97786.69
2023-01-02T07:03:44.069Z,97790.53
2023-01-02T07:06:13.986Z,97797.69
2023-01-02T07:08:43.065Z,97788.91
2023-01-02T07:11:13.765Z,97799.91
2023-01-02T07:13:43.552Z,97799.91
2023-01-02T07:16:16.011Z,97807.03
2023-01-02T07:18:44.897Z,97811.13
2023-01-02T07:21:15.243Z,97815.22
2023-01-02T07:23:43.823Z,97820.09
2023-01-02T07:26:12.754Z,97806.03
2023-01-02T07:28:41.264Z,97810.13
2023-01-02T07:31:13.596Z,97815.03
2023-01-02T07:33:44.356Z,97814.72
2023-01-02T07:36:15.670Z,97807.78
2023-01-02T07:38:45.094Z,97811.34
2023-01-02T07:41:15.589Z,97814.66
2023-01-02T07:43:45.678Z,97828.63
2023-01-02T07:46:14.913Z,97825.06
2023-01-02T07:48:45.146Z,97833.50
2023-01-02T07:51:16.429Z,97831.56
2023-01-02T07:53:46.989Z,97841.16
2023-01-02T07:56:15.453Z,97838.41
2023-01-02T07:58:44.011Z,97844.44
2023-01-02T08:01:13.902Z,97846.88
2023-01-02T08:03:43.951Z,97858.69
2023-01-02T08:06:15.478Z,97860.31
2023-01-02T08:08:44.627Z,97850.44
2023-01-02T08:11:14.798Z,97857.56
2023-01-02T08:13:44.351Z,97860.31
2023-01-02T08:16:14.802Z,97869.69
2023-01-02T08:18:45.321Z,97871.34
2023-01-02T08:21:14.435Z,97874.59
2023-01-02T08:23:42.951Z,97879.28
2023-01-02T08:26:12.699Z,97880.91
2023-01-02T08:28:42.504Z,97891.94
2023-01-02T08:31:12.160Z,97895.50
2023-01-02T08:33:41.505Z,97910.88
2023-01-02T08:36:12.243Z,97914.75
2023-01-02T08:38:40.651Z,97911.72
2023-01-02T08:41:09.212Z,97915.78
2023-01-02T08:43:38.132Z,97916.59
2023-01-02T08:46:08.094Z,97924.56
2023-01-02T08:48:37.141Z,97929.25
2023-01-02T08:51:06.270Z,97932.31
2023-01-02T08:53:36.141Z,97922.09
2023-01-02T08:56:21.583Z,97922.94
2023-01-02T08:58:54.362Z,97932.81
2023-01-02T09:01:24.277Z,97930.06
2023-01-02T09:03:53.766Z,97936.69
2023-01-02T09:06:23.173Z,97932.31
2023-01-02T09:08:55.295Z,97931.28
2023-01-02T09:11:26.811Z,97928.00
2023-01-02T09:13:55.920Z,97938.50
2023-01-02T09:16:24.819Z,97930.84
2023-01-02T09:18:53.902Z,97946.25
2023-01-02T09:21:22.446Z,97942.66
2023-01-02T09:23:51.026Z,97940.22
2023-01-02T09:26:21.009Z,97950.41
2023-01-02T09:28:49.504Z,97949.59
2023-01-02T09:31:19.700Z,97957.84
2023-01-02T09:33:48.732Z,97950.72
2023-01-02T09:36:19.421Z,97943.56
2023-01-02T09:38:52.016Z,97954.28
2023-01-02T09:41:29.913Z,97953.47
2023-01-02T09:44:02.768Z,97951.81
2023-01-02T09:46:37.427Z,97957.34
2023-01-02T09:49:06.309Z,97966.41
2023-01-02T09:51:36.111Z,97967.53
2023-01-02T09:54:07.576Z,97965.88
2023-01-02T09:56:41.461Z,97965.88
2023-01-02T09:59:18.062Z,97955.69
2023-01-02T10:01:56.914Z,97972.19
2023-01-02T10:04:39.669Z,97964.25
2023-01-02T10:07:13.123Z,97974.97
2023-01-02T10:09:51.991Z,97976.06
2023-01-02T10:12:28.638Z,97982.41
2023-01-02T10:14:59.709Z,97984.31
2023-01-02T10:17:31.260Z,97979.94
2023-01-02T10:20:04.544Z,97979.94
2023-01-02T10:22:39.030Z,97981.06
2023-01-02T10:25:12.696Z,97986.03
2023-01-02T10:27:48.395Z,97975.03
2023-01-02T10:30:21.119Z,97972.59
2023-01-02T10:32:58.176Z,97981.09
2023-01-02T10:35:40.178Z,97974.78
2023-01-02T10:38:12.761Z,97980.59
2023-01-02T10:40:44.590Z,97978.97
2023-01-02T10:43:15.789Z,97976.22
2023-01-02T10:45:45.025Z,97984.75
2023-01-02T10:48:14.289Z,97986.69
2023-01-02T10:50:47.392Z,97991.38
2023-01-02T10:53:22.657Z,97998.81
2023-01-02T10:55:51.275Z,97997.19
2023-01-02T10:58:24.098Z,98002.69
2023-01-02T11:01:03.803Z,97987.28
2023-01-02T11:03:32.786Z,97995.53
2023-01-02T11:06:26.843Z,97995.53
2023-01-02T11:08:58.459Z,97991.16
2023-01-02T11:11:28.849Z,97993.09
2023-01-02T11:14:07.776Z,98000.22
2023-01-02T11:16:41.772Z,98004.09
2023-01-02T11:19:24.004Z,98007.66
2023-01-02T11:21:57.058Z,98011.22
2023-01-02T11:24:28.388Z,98004.09
2023-01-02T11:26:58.384Z,98008.78
2023-01-02T11:29:31.782Z,98009.88
2023-01-02T11:32:02.868Z,98011.53
2023-01-02T11:34:35.214Z,98002.47
2023-01-02T11:37:06.879Z,97999.41
2023-01-02T11:39:35.746Z,98001.03
2023-01-02T11:42:35.030Z,98005.72
2023-01-02T11:45:09.202Z,97994.44
2023-01-02T11:47:43.179Z,97998.00
2023-01-02T11:50:14.538Z,98004.91
2023-01-02T11:52:51.436Z,98007.16
2023-01-02T11:55:32.845Z,98001.63
2023-01-02T11:58:07.157Z,98001.63
2023-01-02T12:00:39.926Z,97989.00
2023-01-02T12:03:18.813Z,97989.00
2023-01-02T12:06:02.869Z,97994.22
2023-01-02T12:08:44.534Z,97998.88
2023-01-02T12:11:26.956Z,97996.13
2023-01-02T12:14:08.892Z,98004.41
2023-01-02T12:16:49.841Z,98000.00
2023-01-02T12:19:48.955Z,97997.25
2023-01-02T12:22:46.494Z,98005.50
2023-01-02T12:25:41.254Z,97996.75
2023-01-02T12:28:24.497Z,97996.75
2023-01-02T12:31:08.204Z,98002.25
2023-01-02T12:33:46.776Z,97998.97
2023-01-02T12:36:35.666Z,98004.47
2023-01-02T12:39:21.581Z,97998.97
2023-01-02T12:42:03.279Z,98003.66
2023-01-02T12:44:49.768Z,97998.97
2023-01-02T12:47:27.994Z,98015.47
2023-01-02T12:50:15.101Z,98005.28
2023-01-02T12:52:58.206Z,97997.34
2023-01-02T12:55:37.789Z,97991.84
2023-01-02T12:58:15.953Z,97988.25
2023-01-02T13:00:56.325Z,97997.34
2023-01-02T13:03:42.690Z,97992.94
2023-01-02T13:06:44.836Z,97969.84
2023-01-02T13:09:07.713Z,97975.31
2023-01-02T13:11:41.722Z,97975.31
2023-01-02T13:14:15.655Z,97979.19
2023-01-02T13:16:51.787Z,97978.38
2023-01-02T13:19:28.934Z,97980.31
2023-01-02T13:22:05.815Z,97988.56
2023-01-02T13:24:35.041Z,97993.25
2023-01-02T13:27:05.320Z,97985.00
2023-01-02T13:29:42.429Z,97980.59
2023-01-02T13:32:13.490Z,97991.59
2023-01-02T13:34:51.563Z,98000.69
2023-01-02T13:37:24.534Z,98002.59
2023-01-02T13:39:55.556Z,98001.78
2023-01-02T13:42:44.582Z,98001.78
2023-01-02T13:45:17.179Z,97996.28
2023-01-02T13:47:52.252Z,98005.66
2023-01-02T13:50:26.290Z,97997.41
2023-01-02T13:53:05.271Z,98014.44
2023-01-02T13:55:35.917Z,98013.84
2023-01-02T13:58:29.010Z,98016.50
2023-01-02T14:00:58.279Z,98016.72
2023-01-02T14:03:37.265Z,98026.31
2023-01-02T14:06:28.110Z,98020.81
2023-01-02T14:09:12.819Z,98026.03
2023-01-02T14:11:56.861Z,98031.53
2023-01-02T14:14:33.739Z,98025.72
2023-01-02T14:17:17.075Z,98023.50
2023-01-02T14:19:46.348Z,98039.44
2023-01-02T14:22:16.858Z,98039.44
2023-01-02T14:24:49.188Z,98041.06
2023-01-02T14:27:23.694Z,98044.34
2023-01-02T14:29:54.917Z,98048.22
2023-01-02T14:32:27.958Z,98050.66
2023-01-02T14:34:59.519Z,98056.38
2023-01-02T14:37:35.093Z,98058.47
2023-01-02T14:40:20.359Z,98058.91
2023-01-02T14:43:12.881Z,98068.72
2023-01-02T14:45:45.243Z,98075.25
2023-01-02T14:48:18.018Z,98063.66
2023-01-02T14:50:49.348Z,98074.06
2023-01-02T14:53:22.133Z,98084.47
2023-01-02T14:55:54.839Z,98088.56
2023-01-02T14:58:31.071Z,98093.25
2023-01-02T15:01:04.385Z,98088.25
2023-01-02T15:03:43.424Z,98096.53
2023-01-02T15:06:20.585Z,98096.53
2023-01-02T15:08:52.493Z,98078.38
2023-01-02T15:11:41.417Z,98081.13
2023-01-02T15:14:15.270Z,98086.63
2023-01-02T15:16:50.897Z,98081.63
2023-01-02T15:19:23.080Z,98101.72
2023-01-02T15:21:52.361Z,98114.09
2023-01-02T15:24:23.600Z,98125.91
2023-01-02T15:26:53.772Z,98120.41
2023-01-02T15:29:25.740Z,98141.63
2023-01-02T15:31:56.591Z,98141.41
2023-01-02T15:34:26.733Z,98140.34
2023-01-02T15:36:56.285Z,98153.97
2023-01-02T15:39:33.217Z,98159.84
2023-01-02T15:42:11.903Z,98162.16
2023-01-02T15:44:59.273Z,98157.75
2023-01-02T15:47:28.937Z,98158.66
2023-01-02T15:49:58.571Z,98168.25
2023-01-02T15:52:30.873Z,98177.31
2023-01-02T15:55:00.236Z,98163.63
2023-01-02T15:57:32.435Z,98172.41
2023-01-02T16:00:01.465Z,98171.28
2023-01-02T16:02:37.172Z,98188.34
2023-01-02T16:05:11.805Z,98191.91
2023-01-02T16:07:41.029Z,98188.84
2023-01-02T16:10:20.657Z,98197.94
2023-01-02T16:12:56.827Z,98214.16
2023-01-02T16:15:29.926Z,98220.19
2023-01-02T16:17:59.026Z,98227.31
2023-01-02T16:20:29.086Z,98238.34
2023-01-02T16:22:59.885Z,98245.47
2023-01-02T16:25:31.067Z,98249.03
2023-01-02T16:28:05.129Z,98253.44
2023-01-02T16:31:09.382Z,98258.13
2023-01-02T16:33:38.992Z,98258.66
2023-01-02T16:36:11.792Z,98261.41
2023-01-02T16:38:49.114Z,98260.59
2023-01-02T16:42:08.729Z,98260.28
2023-01-02T16:44:40.776Z,98263.84
2023-01-02T16:47:10.897Z,98260.00
2023-01-02T16:49:39.675Z,98258.34
2023-01-02T16:52:11.005Z,98250.38
2023-01-02T16:54:39.832Z,98246.53
2023-01-02T16:57:13.506Z,98253.97
2023-01-02T16:59:43.323Z,98262.75
2023-01-02T17:02:13.542Z,98255.31
2023-01-02T17:04:42.481Z,98255.31
2023-01-02T17:07:15.710Z,98254.72
2023-01-02T17:09:47.142Z,98262.16
2023-01-02T17:12:15.692Z,98271.22
2023-01-02T17:14:45.827Z,98273.69
2023-01-02T17:17:14.343Z,98267.38
2023-01-02T17:19:42.823Z,98272.34
2023-01-02T17:22:11.344Z,98277.63
2023-01-02T17:24:39.820Z,98283.47
2023-01-02T17:27:08.290Z,98276.41
2023-01-02T17:29:37.142Z,98281.66
2023-01-02T17:32:07.086Z,98281.66
2023-01-02T17:34:35.575Z,98289.06
2023-01-02T17:37:04.020Z,98279.38
2023-01-02T17:39:32.975Z,98275.22
2023-01-02T17:42:01.475Z,98286.47
2023-01-02T17:44:30.068Z,98291.69
2023-01-02T17:47:23.387Z,98294.97
2023-01-02T17:49:49.670Z,98299.34
2023-01-02T17:52:18.888Z,98300.16
2023-01-02T17:54:52.864Z,98298.25
2023-01-02T17:57:25.705Z,98309.78
2023-01-02T17:59:54.479Z,98307.03
2023-01-02T18:02:23.483Z,98308.94
2023-01-02T18:04:55.472Z,98317.75
2023-01-02T18:07:25.534Z,98316.91
2023-01-02T18:10:07.784Z,98317.75
2023-01-02T18:12:38.797Z,98322.13
2023-01-02T18:15:12.349Z,98324.06
2023-01-02T18:17:40.942Z,98324.06
2023-01-02T18:20:14.792Z,98333.66
2023-01-02T18:22:48.859Z,98336.72
2023-01-02T18:25:20.695Z,98338.34
2023-01-02T18:27:49.526Z,98338.34
2023-01-02T18:30:20.236Z,98339.19
2023-01-02T18:32:50.147Z,98334.78
2023-01-02T18:38:20.760Z,98351.00
2023-01-02T18:40:49.181Z,98351.00
2023-01-02T18:43:24.305Z,98351.00
2023-01-02T18:45:57.388Z,98360.91
2023-01-02T18:48:26.038Z,98369.16
2023-01-02T18:50:59.501Z,98363.66
2023-01-02T18:53:31.402Z,98369.16
2023-01-02T18:56:02.777Z,98374.69
2023-01-02T18:58:41.010Z,98380.19
2023-01-02T19:01:29.825Z,98381.00
2023-01-02T19:04:26.319Z,98381.00
2023-01-02T19:07:00.127Z,98391.19
2023-01-02T19:09:32.171Z,98389.56
2023-01-02T19:12:24.571Z,98399.75
2023-01-02T19:14:54.178Z,98397.06
2023-01-02T19:17:24.735Z,98401.75
2023-01-02T19:19:55.939Z,98403.97
2023-01-02T19:22:35.866Z,98405.38
2023-01-02T19:25:14.975Z,98416.66
2023-01-02T19:27:43.546Z,98411.16
2023-01-02T19:30:29.105Z,98422.16
2023-01-02T19:32:58.252Z,98432.06
2023-01-02T19:35:57.852Z,98433.19
2023-01-02T19:38:29.400Z,98441.72
2023-01-02T19:41:00.812Z,98436.50
2023-01-02T19:43:29.439Z,98442.03
2023-01-02T19:45:57.935Z,98444.25
2023-01-02T19:48:26.462Z,98443.13
2023-01-02T19:50:54.969Z,98456.34
2023-01-02T19:53:23.555Z,98461.63
2023-01-02T19:55:53.625Z,98467.16
2023-01-02T19:58:22.347Z,98465.81
2023-01-02T20:00:51.038Z,98466.94
2023-01-02T20:03:19.590Z,98471.63
2023-01-02T20:05:48.820Z,98477.94
2023-01-02T20:08:17.534Z,98490.06
2023-01-02T20:10:46.301Z,98487.59
2023-01-02T20:13:16.131Z,98492.28
2023-01-02T20:15:44.984Z,98493.38
2023-01-02T20:18:17.928Z,98501.94
2023-01-02T20:20:46.477Z,98511.28
2023-01-02T20:23:15.410Z,98515.97
2023-01-02T20:25:43.850Z,98512.69
2023-01-02T20:28:12.264Z,98522.59
2023-01-02T20:30:42.165Z,98519.84
2023-01-02T20:33:11.694Z,98536.34
2023-01-02T20:35:40.106Z,98536.63
2023-01-02T20:38:08.523Z,98538.53
2023-01-02T20:40:37.041Z,98545.97
2023-01-02T20:43:07.437Z,98543.22
2023-01-02T20:45:35.915Z,98558.88
2023-01-02T20:48:06.510Z,98560.53
2023-01-02T20:50:35.005Z,98558.88
2023-01-02T20:53:03.442Z,98558.88
2023-01-02T20:55:31.935Z,98562.75
2023-01-02T20:58:00.406Z,98564.69
2023-01-02T21:00:28.879Z,98558.34
2023-01-02T21:02:57.540Z,98569.38
2023-01-02T21:05:27.570Z,98581.47
2023-01-02T21:07:56.127Z,98580.38
2023-01-02T21:10:24.603Z,98584.22
2023-01-02T21:13:11.811Z,98591.38
2023-01-02T21:15:45.884Z,98580.66
2023-01-02T21:18:15.766Z,98584.22
2023-01-02T21:20:47.322Z,98588.91
2023-01-02T21:23:16.411Z,98591.66
2023-01-02T21:25:45.370Z,98590.84
2023-01-02T21:28:15.780Z,98608.44
2023-01-02T21:30:45.340Z,98617.53
2023-01-02T21:33:14.975Z,98619.47
2023-01-02T21:35:46.855Z,98630.75
2023-01-02T21:38:15.661Z,98630.75
2023-01-02T21:40:45.904Z,98629.91
2023-01-02T21:43:14.735Z,98627.16
2023-01-02T21:45:43.289Z,98636.25
2023-01-02T21:48:11.782Z,98629.91
2023-01-02T21:50:40.482Z,98629.91
2023-01-02T21:53:10.350Z,98640.09
2023-01-02T21:55:38.758Z,98642.03
2023-01-02T21:58:15.095Z,98650.28
2023-01-02T22:00:44.020Z,98642.03
2023-01-02T22:03:13.438Z,98647.53
2023-01-02T22:05:42.303Z,98651.94
2023-01-02T22:08:12.159Z,98646.72
2023-01-02T22:10:40.641Z,98655.78
2023-01-02T22:13:09.143Z,98661.28
2023-01-02T22:15:37.656Z,98662.69
2023-01-02T22:18:06.349Z,98654.16
2023-01-02T22:20:34.929Z,98661.56
2023-01-02T22:23:03.562Z,98658.00
2023-01-02T22:25:33.765Z,98669.81
2023-01-02T22:28:02.248Z,98668.19
2023-01-02T22:30:34.747Z,98681.13
2023-01-02T22:33:04.280Z,98678.38
2023-01-02T22:35:34.040Z,98687.44
2023-01-02T22:38:02.631Z,98691.28
2023-01-02T22:40:31.245Z,98694.88
2023-01-02T22:43:03.394Z,98694.88
2023-01-02T22:45:36.617Z,98694.88
2023-01-02T22:48:08.859Z,98694.88
2023-01-02T22:50:43.490Z,98698.72
2023-01-02T22:53:19.053Z,98709.72
2023-01-02T22:55:47.980Z,98700.66
2023-01-02T22:58:18.414Z,98705.34
2023-01-02T23:00:48.340Z,98706.16
2023-01-02T23:03:17.724Z,98702.59
2023-01-02T23:05:46.343Z,98706.97
2023-01-02T23:08:15.000Z,98705.34
2023-01-02T23:10:43.541Z,98704.50
2023-01-02T23:13:12.173Z,98702.59
2023-01-02T23:16:03.140Z,98714.69
2023-01-02T23:18:56.223Z,98726.22
2023-01-02T23:21:26.533Z,98723.75
2023-01-02T23:23:55.350Z,98719.09
2023-01-02T23:26:26.960Z,98711.94
2023-01-02T23:29:06.443Z,98704.78
2023-01-02T23:31:39.267Z,98708.38
2023-01-02T23:34:07.917Z,98706.72
2023-01-02T23:36:37.213Z,98714.97
2023-01-02T23:39:07.630Z,98703.97
2023-01-02T23:41:36.311Z,98703.97
2023-01-02T23:44:05.985Z,98701.50
2023-01-02T23:46:35.603Z,98692.97
2023-01-02T23:49:06.178Z,98697.63
2023-01-02T23:51:35.082Z,98699.56
2023-01-02T23:54:03.605Z,98708.66
2023-01-02T23:56:34.754Z,98704.25
2023-01-02T23:59:05.927Z,98712.22
